Time;durP1;ratioP1;P1;durP2;ratioP2;P2;SDS_P1;SDS_P2;PMS_P1;PMS_P2;Temp;Humidity;BMP_temperature;BMP_pressure;BME280_temperature;BME280_humidity;BME280_pressure;Samples;Min_cycle;Max_cycle;Signal;HPM_P1;HPM_P2
2022/06/20 00:01:54;;;;;;;20.03;10.90;;;;;;;;;;5000502;28;20940;-83
2022/06/20 00:04:20;;;;;;;25.07;11.13;;;;;;;;;;5000390;28;20454;-82
2022/06/20 00:06:46;;;;;;;17.47;11.20;;;;;;;;;;5000195;28;20491;-83
2022/06/20 00:09:13;;;;;;;21.07;10.47;;;;;;;;;;5000287;28;20528;-83
2022/06/20 00:11:40;;;;;;;18.60;10.93;;;;;;;;;;5000139;28;20750;-82
2022/06/20 00:14:07;;;;;;;15.17;10.40;;;;;;;;;;4999456;28;20400;-83
2022/06/20 00:16:34;;;;;;;18.80;10.13;;;;;;;;;;4999845;28;20413;-83
2022/06/20 00:19:01;;;;;;;20.70;11.10;;;;;;;;;;5000920;28;20467;-82
2022/06/20 00:21:27;;;;;;;16.70;10.87;;;;;;;;;;5000057;28;20511;-82
2022/06/20 00:23:53;;;;;;;17.40;10.63;;;;;;;;;;4999822;28;20415;-82
2022/06/20 00:26:19;;;;;;;20.60;12.33;;;;;;;;;;4995886;28;20483;-82
2022/06/20 00:28:46;;;;;;;14.47;10.23;;;;;;;;;;4995433;28;20519;-81
2022/06/20 00:31:12;;;;;;;15.40;11.00;;;;;;;;;;4995568;28;20853;-82
2022/06/20 00:33:38;;;;;;;19.73;10.97;;;;;;;;;;4995542;28;20404;-82
2022/06/20 00:36:05;;;;;;;20.30;12.27;;;;;;;;;;4998941;28;20776;-83
2022/06/20 00:38:31;;;;;;;16.50;10.37;;;;;;;;;;4999525;28;20451;-82
2022/06/20 00:40:58;;;;;;;15.33;11.20;;;;;;;;;;4997919;28;20831;-82
2022/06/20 00:43:32;;;;;;;17.20;11.57;;;;;;;;;;4999373;28;20455;-82
2022/06/20 00:45:59;;;;;;;20.57;10.63;;;;;;;;;;5000067;28;20530;-83
2022/06/20 00:48:46;;;;;;;25.40;11.23;;;;;;;;;;4997562;28;20468;-82
2022/06/20 00:51:35;;;;;;;16.10;10.53;;;;;;;;;;5000091;28;20757;-83
2022/06/20 00:54:22;;;;;;;12.50;11.00;;;;;;;;;;4993738;28;20495;-83
2022/06/20 00:57:06;;;;;;;19.40;10.17;;;;;;;;;;4998773;28;20515;-81
2022/06/20 00:59:35;;;;;;;19.03;11.60;;;;;;;;;;4998935;28;20503;-82
2022/06/20 01:02:03;;;;;;;17.33;10.03;;;;;;;;;;4998015;28;20400;-82
2022/06/20 01:04:32;;;;;;;15.27;11.23;;;;;;;;;;4999055;28;20396;-83
2022/06/20 01:06:59;;;;;;;21.53;11.13;;;;;;;;;;4997933;28;20408;-82
2022/06/20 01:09:28;;;;;;;20.43;12.17;;;;;;;;;;4997730;28;20519;-83
2022/06/20 01:11:56;;;;;;;20.40;10.27;;;;;;;;;;4995637;28;20452;-82
2022/06/20 01:14:38;;;;;;;13.50;10.07;;;;;;;;;;4998334;28;20407;-82
2022/06/20 01:17:19;;;;;;;14.20;11.20;;;;;;;;;;4999173;28;20383;-82
2022/06/20 01:19:51;;;;;;;21.43;11.30;;;;;;;;;;4999006;28;20443;-82
2022/06/20 01:22:38;;;;;;;18.27;10.50;;;;;;;;;;4998579;28;20404;-82
2022/06/20 01:25:04;;;;;;;15.47;8.83;;;;;;;;;;4998348;28;20443;-82
2022/06/20 01:27:34;;;;;;;16.70;10.17;;;;;;;;;;4999009;28;20412;-83
2022/06/20 01:30:00;;;;;;;15.97;10.80;;;;;;;;;;4998191;28;20427;-82
2022/06/20 01:32:26;;;;;;;18.30;8.83;;;;;;;;;;4998513;28;20432;-82
2022/06/20 01:34:53;;;;;;;19.30;10.80;;;;;;;;;;4999102;28;20404;-82
2022/06/20 01:37:23;;;;;;;17.47;9.83;;;;;;;;;;4998538;28;20405;-82
2022/06/20 01:39:50;;;;;;;14.23;8.23;;;;;;;;;;4998583;28;20444;-82
2022/06/20 01:42:19;;;;;;;15.87;8.80;;;;;;;;;;4998739;28;20426;-82
2022/06/20 01:44:47;;;;;;;18.00;9.27;;;;;;;;;;4998077;28;20408;-82
2022/06/20 01:47:13;;;;;;;15.33;9.03;;;;;;;;;;4998331;28;20401;-82
2022/06/20 01:49:41;;;;;;;18.93;9.70;;;;;;;;;;4998688;28;20830;-82
2022/06/20 01:52:07;;;;;;;19.30;10.50;;;;;;;;;;5000322;28;20475;-82
2022/06/20 01:54:35;;;;;;;15.00;9.03;;;;;;;;;;5002620;28;20400;-82
2022/06/20 01:57:02;;;;;;;13.30;8.87;;;;;;;;;;5002764;28;20404;-82
2022/06/20 01:59:35;;;;;;;16.63;11.10;;;;;;;;;;5002571;28;20938;-82
2022/06/20 02:02:02;;;;;;;19.13;8.90;;;;;;;;;;5002781;28;20423;-82
2022/06/20 02:04:31;;;;;;;18.03;9.93;;;;;;;;;;5001933;28;20454;-82
2022/06/20 02:06:57;;;;;;;12.77;9.53;;;;;;;;;;5002084;28;20559;-82
2022/06/20 02:09:23;;;;;;;17.70;10.87;;;;;;;;;;5001886;28;20511;-82
2022/06/20 02:11:49;;;;;;;25.53;11.70;;;;;;;;;;5002318;28;20408;-82
2022/06/20 02:14:29;;;;;;;15.37;9.93;;;;;;;;;;5001589;28;20435;-82
2022/06/20 02:16:56;;;;;;;17.83;10.37;;;;;;;;;;5000244;28;20440;-82
2022/06/20 02:19:26;;;;;;;20.67;10.57;;;;;;;;;;5001979;28;20435;-82
2022/06/20 02:21:54;;;;;;;19.00;9.43;;;;;;;;;;5002012;28;20889;-82
2022/06/20 02:24:21;;;;;;;16.97;8.80;;;;;;;;;;5001963;28;20404;-83
2022/06/20 02:26:50;;;;;;;21.67;10.20;;;;;;;;;;5000676;28;20483;-82
2022/06/20 02:29:22;;;;;;;23.60;9.63;;;;;;;;;;5001898;28;20459;-82
2022/06/20 02:31:58;;;;;;;21.40;8.57;;;;;;;;;;5002183;28;20392;-83
2022/06/20 02:34:26;;;;;;;16.63;9.07;;;;;;;;;;5000195;28;20446;-82
2022/06/20 02:36:53;;;;;;;15.03;7.83;;;;;;;;;;5001613;28;20416;-83
2022/06/20 02:39:19;;;;;;;19.20;9.77;;;;;;;;;;5001891;28;20478;-82
2022/06/20 02:41:47;;;;;;;16.63;9.60;;;;;;;;;;5001602;28;20418;-82
2022/06/20 02:44:15;;;;;;;15.83;9.37;;;;;;;;;;5001661;28;20415;-82
2022/06/20 02:46:42;;;;;;;19.73;9.30;;;;;;;;;;5000188;28;20992;-82
2022/06/20 02:49:09;;;;;;;20.93;9.00;;;;;;;;;;5001789;28;20511;-82
2022/06/20 02:51:40;;;;;;;21.17;8.50;;;;;;;;;;5001022;28;20401;-83
2022/06/20 02:54:07;;;;;;;25.40;8.93;;;;;;;;;;5001325;28;20524;-82
2022/06/20 02:56:43;;;;;;;11.97;8.47;;;;;;;;;;5001616;28;20924;-82
2022/06/20 02:59:15;;;;;;;18.17;9.90;;;;;;;;;;5001575;28;20412;-82
2022/06/20 03:01:43;;;;;;;18.47;9.60;;;;;;;;;;5011588;28;20442;-81
2022/06/20 03:04:10;;;;;;;17.50;8.97;;;;;;;;;;5016120;28;20415;-82
2022/06/20 03:06:42;;;;;;;14.87;8.20;;;;;;;;;;5009113;28;20507;-82
2022/06/20 03:09:10;;;;;;;21.07;11.33;;;;;;;;;;5003371;28;20838;-82
2022/06/20 03:11:37;;;;;;;20.00;9.37;;;;;;;;;;5001425;28;20455;-82
2022/06/20 03:14:05;;;;;;;15.03;8.23;;;;;;;;;;5001628;28;20415;-82
2022/06/20 03:16:31;;;;;;;14.63;9.23;;;;;;;;;;5001072;28;20473;-82
2022/06/20 03:18:59;;;;;;;17.43;9.73;;;;;;;;;;5001357;28;20432;-83
2022/06/20 03:21:27;;;;;;;16.73;8.40;;;;;;;;;;5000930;28;20415;-82
2022/06/20 03:23:53;;;;;;;11.20;9.33;;;;;;;;;;5001325;28;20412;-82
2022/06/20 03:26:24;;;;;;;20.37;10.30;;;;;;;;;;5000974;28;20455;-82
2022/06/20 03:28:51;;;;;;;17.23;9.60;;;;;;;;;;5000782;28;20947;-82
2022/06/20 03:31:17;;;;;;;17.60;8.90;;;;;;;;;;5001590;28;20404;-82
2022/06/20 03:33:43;;;;;;;19.43;8.73;;;;;;;;;;5000984;28;20433;-82
2022/06/20 03:36:13;;;;;;;20.07;9.00;;;;;;;;;;4996610;28;20432;-82
2022/06/20 03:38:39;;;;;;;18.40;8.77;;;;;;;;;;5027876;23;20491;-85
2022/06/20 03:41:06;;;;;;;19.33;9.67;;;;;;;;;;5010346;28;20485;-84
2022/06/20 03:43:33;;;;;;;18.13;8.93;;;;;;;;;;5003786;28;20419;-83
2022/06/20 03:46:00;;;;;;;17.17;8.53;;;;;;;;;;5018957;28;20464;-84
2022/06/20 03:48:32;;;;;;;18.70;8.30;;;;;;;;;;5013533;28;20484;-85
2022/06/20 03:51:01;;;;;;;15.90;8.40;;;;;;;;;;5012908;28;20400;-85
2022/06/20 03:53:36;;;;;;;15.80;9.17;;;;;;;;;;5012543;28;20416;-84
2022/06/20 03:56:10;;;;;;;13.60;8.50;;;;;;;;;;5013294;28;20404;-84
2022/06/20 03:58:57;;;;;;;16.03;9.13;;;;;;;;;;5012039;28;20503;-84
2022/06/20 04:01:36;;;;;;;16.13;9.53;;;;;;;;;;5011955;28;20743;-84
2022/06/20 04:04:09;;;;;;;15.80;9.07;;;;;;;;;;4994660;28;20915;-84
2022/06/20 04:06:39;;;;;;;16.33;8.30;;;;;;;;;;5012386;28;20440;-83
2022/06/20 04:12:38;;;;;;;18.60;9.03;;;;;;;;;;5013851;28;20569;-84
2022/06/20 04:15:04;;;;;;;21.73;8.93;;;;;;;;;;4975707;28;20414;-84
2022/06/20 04:20:45;;;;;;;14.53;8.57;;;;;;;;;;5013701;28;20415;-85
2022/06/20 04:23:32;;;;;;;12.00;7.63;;;;;;;;;;4996658;28;20412;-86
2022/06/20 04:26:01;;;;;;;15.57;8.63;;;;;;;;;;4979371;28;20460;-84
2022/06/20 04:28:33;;;;;;;24.60;10.07;;;;;;;;;;5017759;28;20424;-84
2022/06/20 04:31:25;;;;;;;17.23;9.57;;;;;;;;;;5013267;28;20404;-84
2022/06/20 04:33:55;;;;;;;14.10;8.40;;;;;;;;;;4966517;28;20435;-84
2022/06/20 04:36:21;;;;;;;16.40;9.50;;;;;;;;;;4994357;28;20412;-84
2022/06/20 04:38:51;;;;;;;12.17;8.47;;;;;;;;;;4994525;28;20455;-84
2022/06/20 04:41:25;;;;;;;13.20;7.73;;;;;;;;;;4995204;28;20412;-84
2022/06/20 04:43:54;;;;;;;16.50;8.37;;;;;;;;;;4994291;28;20408;-84
2022/06/20 04:46:25;;;;;;;20.47;9.17;;;;;;;;;;4993200;28;20480;-84
2022/06/20 04:48:51;;;;;;;13.33;7.80;;;;;;;;;;5011024;28;20491;-84
2022/06/20 04:51:18;;;;;;;19.43;8.90;;;;;;;;;;4993698;28;20412;-84
2022/06/20 04:53:45;;;;;;;14.13;8.20;;;;;;;;;;4993165;28;20424;-83
2022/06/20 04:56:13;;;;;;;21.23;8.83;;;;;;;;;;5009505;28;20411;-83
2022/06/20 04:58:42;;;;;;;17.33;8.50;;;;;;;;;;4993125;28;20436;-83
2022/06/20 05:01:09;;;;;;;18.00;10.00;;;;;;;;;;4993071;28;20405;-83
2022/06/20 05:03:42;;;;;;;12.10;8.03;;;;;;;;;;5010487;28;20435;-85
2022/06/20 05:06:13;;;;;;;16.60;7.80;;;;;;;;;;4993335;28;20460;-85
2022/06/20 05:08:45;;;;;;;16.83;9.13;;;;;;;;;;5010625;28;20428;-85
2022/06/20 05:11:16;;;;;;;15.43;8.17;;;;;;;;;;4992920;28;20490;-85
2022/06/20 05:13:44;;;;;;;15.37;7.83;;;;;;;;;;4992836;28;20412;-84
2022/06/20 05:16:28;;;;;;;16.00;9.80;;;;;;;;;;5010482;28;20463;-84
2022/06/20 05:18:56;;;;;;;10.80;8.30;;;;;;;;;;5009627;28;20460;-84
2022/06/20 05:21:27;;;;;;;14.27;8.60;;;;;;;;;;5009574;28;20815;-85
2022/06/20 05:23:55;;;;;;;12.83;8.07;;;;;;;;;;4991768;28;20416;-83
2022/06/20 05:26:28;;;;;;;13.47;8.00;;;;;;;;;;4999397;28;20459;-83
2022/06/20 05:28:55;;;;;;;12.00;7.97;;;;;;;;;;4980774;28;20530;-83
2022/06/20 05:31:33;;;;;;;14.20;7.53;;;;;;;;;;5000470;28;20400;-84
2022/06/20 05:34:12;;;;;;;13.70;8.80;;;;;;;;;;5001147;28;20397;-83
2022/06/20 05:36:56;;;;;;;21.37;9.60;;;;;;;;;;5003647;28;20389;-83
2022/06/20 05:39:25;;;;;;;20.63;8.93;;;;;;;;;;5004526;28;20470;-84
2022/06/20 05:41:51;;;;;;;17.67;8.57;;;;;;;;;;5007425;28;20459;-83
2022/06/20 05:44:18;;;;;;;15.20;8.60;;;;;;;;;;5005854;28;20420;-83
2022/06/20 05:46:48;;;;;;;11.47;7.50;;;;;;;;;;4989384;28;20451;-83
2022/06/20 05:49:16;;;;;;;12.47;7.43;;;;;;;;;;4993188;28;20476;-82
2022/06/20 05:51:44;;;;;;;16.47;10.27;;;;;;;;;;5011484;28;20411;-84
2022/06/20 05:54:21;;;;;;;20.80;8.83;;;;;;;;;;5007559;28;20439;-83
2022/06/20 05:56:49;;;;;;;15.03;9.13;;;;;;;;;;4991435;28;20412;-83
2022/06/20 05:59:31;;;;;;;18.63;9.10;;;;;;;;;;4992326;28;20491;-83
2022/06/20 06:02:04;;;;;;;20.37;7.27;;;;;;;;;;4992028;28;20416;-83
2022/06/20 06:04:34;;;;;;;20.10;8.57;;;;;;;;;;5011471;28;20808;-84
2022/06/20 06:07:05;;;;;;;22.10;7.87;;;;;;;;;;5010965;28;20486;-84
2022/06/20 06:09:44;;;;;;;21.10;8.63;;;;;;;;;;5010539;28;20424;-83
2022/06/20 06:12:14;;;;;;;26.10;8.57;;;;;;;;;;5011453;28;20404;-84
2022/06/20 06:14:40;;;;;;;17.90;7.70;;;;;;;;;;5011655;28;20408;-84
2022/06/20 06:17:17;;;;;;;14.10;7.73;;;;;;;;;;4994364;28;20419;-85
2022/06/20 06:19:47;;;;;;;15.60;8.30;;;;;;;;;;5011020;28;20483;-85
2022/06/20 06:22:13;;;;;;;23.43;8.70;;;;;;;;;;4993082;28;20408;-85
2022/06/20 06:24:41;;;;;;;16.33;7.60;;;;;;;;;;4993625;28;20427;-85
2022/06/20 06:27:12;;;;;;;16.90;8.27;;;;;;;;;;5009914;28;20388;-85
2022/06/20 06:30:07;;;;;;;13.13;7.70;;;;;;;;;;4992332;28;20416;-86
2022/06/20 06:32:43;;;;;;;12.70;7.80;;;;;;;;;;4975634;28;20471;-85
2022/06/20 06:35:13;;;;;;;21.30;8.97;;;;;;;;;;5009988;28;20407;-86
2022/06/20 06:37:53;;;;;;;18.17;8.00;;;;;;;;;;4998134;28;20480;-86
2022/06/20 06:40:27;;;;;;;13.27;8.57;;;;;;;;;;4998826;28;20482;-85
2022/06/20 06:42:55;;;;;;;14.60;8.27;;;;;;;;;;4997371;28;20432;-85
2022/06/20 06:45:26;;;;;;;20.67;8.20;;;;;;;;;;5014440;28;20447;-85
2022/06/20 06:47:56;;;;;;;15.93;7.93;;;;;;;;;;4997612;28;20420;-85
2022/06/20 06:50:22;;;;;;;11.87;7.00;;;;;;;;;;4996612;28;20436;-85
2022/06/20 06:52:51;;;;;;;18.60;7.87;;;;;;;;;;5013981;28;20439;-85
2022/06/20 06:55:17;;;;;;;18.47;7.10;;;;;;;;;;5024244;28;20525;-86
2022/06/20 06:58:07;;;;;;;15.13;7.90;;;;;;;;;;5013653;28;20483;-86
2022/06/20 07:03:42;;;;;;;27.30;8.40;;;;;;;;;;5033174;28;20403;-85
2022/06/20 07:06:14;;;;;;;11.23;7.70;;;;;;;;;;5033055;28;20478;-84
2022/06/20 07:09:15;;;;;;;14.93;8.00;;;;;;;;;;5015587;28;20435;-85
2022/06/20 07:11:46;;;;;;;11.80;6.70;;;;;;;;;;5005958;28;20434;-85
2022/06/20 07:14:24;;;;;;;17.00;7.10;;;;;;;;;;5039443;28;20439;-85
2022/06/20 07:17:00;;;;;;;11.93;7.70;;;;;;;;;;5016810;28;20403;-86
2022/06/20 07:19:48;;;;;;;12.73;7.47;;;;;;;;;;5033755;28;20470;-86
2022/06/20 07:22:35;;;;;;;16.90;7.10;;;;;;;;;;5015941;28;20419;-85
2022/06/20 07:28:49;;;;;;;10.50;7.30;;;;;;;;;;4969449;29;20429;-86
2022/06/20 07:34:30;;;;;;;11.27;6.97;;;;;;;;;;4972222;29;20579;-86
2022/06/20 07:40:36;;;;;;;13.77;7.10;;;;;;;;;;4970672;29;20437;-86
2022/06/20 07:43:31;;;;;;;11.80;6.20;;;;;;;;;;4959546;28;20815;-86
2022/06/20 07:46:02;;;;;;;11.53;7.23;;;;;;;;;;5000854;28;20989;-86
2022/06/20 07:58:02;;;;;;;11.00;6.40;;;;;;;;;;4953308;28;20422;-87
2022/06/20 08:00:30;;;;;;;17.47;8.27;;;;;;;;;;5031389;28;20443;-87
2022/06/20 08:03:19;;;;;;;13.50;6.80;;;;;;;;;;5014349;28;20527;-86
2022/06/20 08:05:51;;;;;;;11.97;6.30;;;;;;;;;;5009720;28;20466;-87
2022/06/20 08:08:30;;;;;;;11.00;6.00;;;;;;;;;;5015404;28;20420;-86
2022/06/20 08:11:40;;;;;;;12.30;7.80;;;;;;;;;;5012304;28;20422;-86
2022/06/20 08:14:25;;;;;;;;;;;;;;;;;;;;;
2022/06/20 08:17:07;;;;;;;12.33;5.97;;;;;;;;;;5032028;28;20439;-86
2022/06/20 08:20:11;;;;;;;10.73;6.27;;;;;;;;;;5022000;28;20454;-86
2022/06/20 08:22:54;;;;;;;12.03;5.90;;;;;;;;;;4998480;28;20400;-86
2022/06/20 08:25:39;;;;;;;9.73;6.00;;;;;;;;;;5013901;28;20542;-86
2022/06/20 08:28:26;;;;;;;13.17;6.33;;;;;;;;;;5010858;28;20403;-87
2022/06/20 08:31:10;;;;;;;;;;;;;;;;;;;;;
2022/06/20 08:34:14;;;;;;;;;;;;;;;;;;;;;
2022/06/20 08:36:43;;;;;;;15.17;7.43;;;;;;;;;;5030566;28;20434;-86
2022/06/20 08:39:27;;;;;;;13.07;6.30;;;;;;;;;;5011636;28;20471;-86
2022/06/20 08:42:14;;;;;;;9.13;4.80;;;;;;;;;;5011323;28;20413;-86
2022/06/20 08:47:59;;;;;;;12.00;5.60;;;;;;;;;;5031015;28;20390;-87
2022/06/20 08:50:44;;;;;;;11.70;6.57;;;;;;;;;;5013122;28;20420;-84
2022/06/20 08:53:48;;;;;;;13.90;6.60;;;;;;;;;;5030598;28;20392;-85
2022/06/20 08:56:16;;;;;;;10.20;5.60;;;;;;;;;;5030409;28;20434;-86
2022/06/20 08:59:00;;;;;;;10.60;5.53;;;;;;;;;;5012014;28;20427;-85
2022/06/20 09:01:48;;;;;;;26.93;6.37;;;;;;;;;;5010579;28;20407;-85
2022/06/20 09:04:44;;;;;;;10.77;6.07;;;;;;;;;;5010486;28;20406;-85
2022/06/20 09:07:37;;;;;;;9.80;5.80;;;;;;;;;;5009321;28;20574;-85
2022/06/20 09:13:48;;;;;;;12.27;6.93;;;;;;;;;;5018887;28;20935;-87
2022/06/20 09:16:35;;;;;;;10.93;5.03;;;;;;;;;;5021130;28;20388;-86
2022/06/20 09:19:16;;;;;;;14.03;5.40;;;;;;;;;;5003259;28;20500;-82
2022/06/20 09:22:19;;;;;;;13.00;4.60;;;;;;;;;;5004863;28;20407;-85
2022/06/20 09:24:48;;;;;;;9.70;5.47;;;;;;;;;;5025786;28;20403;-86
2022/06/20 09:27:16;;;;;;;14.10;4.77;;;;;;;;;;5007673;28;20422;-86
2022/06/20 09:29:51;;;;;;;10.27;4.90;;;;;;;;;;5008183;28;20903;-86
2022/06/20 09:32:40;;;;;;;8.53;5.07;;;;;;;;;;5009913;28;20411;-86
2022/06/20 09:35:19;;;;;;;12.57;5.13;;;;;;;;;;4982291;28;20916;-85
2022/06/20 09:37:52;;;;;;;16.47;4.33;;;;;;;;;;5028652;28;20409;-85
2022/06/20 09:40:35;;;;;;;15.03;4.80;;;;;;;;;;5009153;23;20536;-84
2022/06/20 09:43:11;;;;;;;10.00;5.37;;;;;;;;;;4971513;28;20414;-82
2022/06/20 09:45:37;;;;;;;12.03;5.00;;;;;;;;;;4967450;28;20964;-84
2022/06/20 09:48:27;;;;;;;9.03;4.67;;;;;;;;;;4975286;28;20414;-83
2022/06/20 09:50:59;;;;;;;12.67;4.93;;;;;;;;;;4963130;28;20430;-83
2022/06/20 09:53:35;;;;;;;8.00;4.57;;;;;;;;;;4963162;29;20454;-83
2022/06/20 09:56:01;;;;;;;7.53;5.47;;;;;;;;;;4981043;28;20504;-83
2022/06/20 09:58:27;;;;;;;5.93;4.50;;;;;;;;;;4981219;28;20437;-83
2022/06/20 10:00:53;;;;;;;7.43;4.53;;;;;;;;;;4980983;28;20417;-83
2022/06/20 10:03:26;;;;;;;7.20;4.43;;;;;;;;;;4979178;28;20416;-82
2022/06/20 10:05:53;;;;;;;9.37;4.70;;;;;;;;;;4977461;28;20432;-82
2022/06/20 10:08:19;;;;;;;7.43;4.63;;;;;;;;;;4978923;28;20409;-82
2022/06/20 10:10:51;;;;;;;10.93;4.20;;;;;;;;;;4977672;28;20469;-84
2022/06/20 10:13:24;;;;;;;11.50;5.10;;;;;;;;;;4979688;28;20405;-83
2022/06/20 10:15:54;;;;;;;9.60;4.30;;;;;;;;;;4983035;28;20404;-83
2022/06/20 10:18:20;;;;;;;8.37;4.33;;;;;;;;;;4982865;28;20467;-83
2022/06/20 10:20:49;;;;;;;7.67;4.47;;;;;;;;;;4983184;28;20437;-83
2022/06/20 10:23:39;;;;;;;7.20;4.00;;;;;;;;;;4985236;28;20397;-83
2022/06/20 10:26:14;;;;;;;8.20;4.20;;;;;;;;;;4984132;28;20464;-83
2022/06/20 10:28:40;;;;;;;11.87;4.60;;;;;;;;;;4982669;28;20416;-83
2022/06/20 10:31:28;;;;;;;11.43;5.00;;;;;;;;;;4982816;28;20820;-83
2022/06/20 10:33:54;;;;;;;9.93;5.13;;;;;;;;;;4982374;28;20400;-84
2022/06/20 10:36:24;;;;;;;17.40;5.10;;;;;;;;;;4982066;28;20441;-81
2022/06/20 10:39:00;;;;;;;9.80;5.17;;;;;;;;;;4982472;28;20520;-83
2022/06/20 10:41:39;;;;;;;9.63;4.70;;;;;;;;;;4981390;28;20424;-83
2022/06/20 10:44:05;;;;;;;9.77;5.00;;;;;;;;;;4983637;28;20405;-83
2022/06/20 10:46:45;;;;;;;7.57;3.73;;;;;;;;;;4991623;28;20449;-84
2022/06/20 10:49:15;;;;;;;13.70;5.27;;;;;;;;;;4993209;28;20449;-82
2022/06/20 10:51:50;;;;;;;5.50;4.23;;;;;;;;;;4992093;28;20421;-82
2022/06/20 10:54:35;;;;;;;6.33;4.20;;;;;;;;;;4991373;28;20412;-82
2022/06/20 10:57:10;;;;;;;13.03;5.00;;;;;;;;;;4990197;28;20416;-83
2022/06/20 10:59:36;;;;;;;7.83;4.63;;;;;;;;;;4993443;28;20420;-82
2022/06/20 11:02:05;;;;;;;7.03;4.27;;;;;;;;;;4993691;28;20437;-81
2022/06/20 11:04:40;;;;;;;6.57;4.20;;;;;;;;;;4992264;28;20409;-81
2022/06/20 11:07:21;;;;;;;12.37;4.53;;;;;;;;;;4989980;28;20460;-82
2022/06/20 11:10:00;;;;;;;11.27;4.23;;;;;;;;;;4982706;28;20421;-83
2022/06/20 11:12:36;;;;;;;11.33;4.70;;;;;;;;;;4981657;28;20862;-83
2022/06/20 11:15:14;;;;;;;9.10;4.30;;;;;;;;;;4980956;28;20405;-82
2022/06/20 11:17:46;;;;;;;6.10;3.90;;;;;;;;;;4980885;28;20845;-81
2022/06/20 11:20:22;;;;;;;10.73;4.80;;;;;;;;;;4979480;28;20429;-81
2022/06/20 11:22:52;;;;;;;12.00;5.63;;;;;;;;;;4978222;28;20464;-81
2022/06/20 11:25:35;;;;;;;6.80;4.30;;;;;;;;;;4976186;28;20931;-82
2022/06/20 11:28:10;;;;;;;10.80;4.70;;;;;;;;;;4980610;28;20408;-82
2022/06/20 11:30:49;;;;;;;5.03;3.93;;;;;;;;;;4981676;28;20516;-83
2022/06/20 11:34:19;;;;;;;10.63;4.13;;;;;;;;;;4980277;28;20400;-82
2022/06/20 11:36:21;;;;;;;13.20;5.00;;;;;;;;;;4979752;28;20943;-81
2022/06/20 11:38:59;;;;;;;6.90;3.70;;;;;;;;;;4981017;28;20432;-81
2022/06/20 11:41:30;;;;;;;8.03;3.80;;;;;;;;;;4980856;28;20385;-82
2022/06/20 11:44:09;;;;;;;8.87;4.97;;;;;;;;;;4981402;28;20393;-82
2022/06/20 11:46:41;;;;;;;7.20;4.23;;;;;;;;;;4980993;28;20460;-82
2022/06/20 11:49:07;;;;;;;10.93;4.20;;;;;;;;;;4980851;28;20818;-82
2022/06/20 11:51:57;;;;;;;14.97;5.37;;;;;;;;;;4981469;28;20456;-84
2022/06/20 11:54:27;;;;;;;7.17;4.30;;;;;;;;;;4954317;28;20432;-82
2022/06/20 11:57:01;;;;;;;16.20;4.80;;;;;;;;;;4980339;28;20421;-83
2022/06/20 11:59:45;;;;;;;9.87;4.83;;;;;;;;;;4979487;28;20916;-83
2022/06/20 12:02:11;;;;;;;11.27;4.93;;;;;;;;;;4980756;28;20928;-84
2022/06/20 12:05:06;;;;;;;9.90;4.40;;;;;;;;;;4979968;28;20413;-84
2022/06/20 12:07:36;;;;;;;7.87;4.60;;;;;;;;;;4966621;28;20436;-84
2022/06/20 12:10:10;;;;;;;15.50;5.70;;;;;;;;;;4979051;28;20431;-83
2022/06/20 12:12:45;;;;;;;9.40;4.90;;;;;;;;;;4979147;28;20427;-85
2022/06/20 12:15:26;;;;;;;8.83;4.97;;;;;;;;;;4991730;28;20408;-84
2022/06/20 12:17:58;;;;;;;7.30;4.70;;;;;;;;;;5000405;28;20498;-82
2022/06/20 12:23:27;;;;;;;8.07;4.63;;;;;;;;;;5000383;28;20403;-82
2022/06/20 12:25:59;;;;;;;8.80;4.57;;;;;;;;;;4990078;28;20503;-86
2022/06/20 12:28:25;;;;;;;12.13;6.10;;;;;;;;;;4998411;28;20782;-82
2022/06/20 12:30:58;;;;;;;15.13;6.37;;;;;;;;;;5000307;28;20428;-83
2022/06/20 12:33:24;;;;;;;10.10;4.77;;;;;;;;;;4999580;28;20443;-82
2022/06/20 12:35:53;;;;;;;7.00;4.40;;;;;;;;;;4998282;28;20727;-82
2022/06/20 12:38:23;;;;;;;7.87;5.00;;;;;;;;;;4998914;28;20478;-83
2022/06/20 12:40:52;;;;;;;17.17;5.40;;;;;;;;;;4998823;28;20520;-83
2022/06/20 12:43:21;;;;;;;9.97;5.20;;;;;;;;;;4998838;28;20431;-83
2022/06/20 12:46:02;;;;;;;7.30;4.50;;;;;;;;;;4996921;28;20448;-82
2022/06/20 12:48:43;;;;;;;6.97;4.27;;;;;;;;;;4998461;28;20404;-82
2022/06/20 12:51:31;;;;;;;8.10;4.57;;;;;;;;;;4998157;28;20569;-83
2022/06/20 12:54:17;;;;;;;14.27;5.20;;;;;;;;;;4996196;28;20392;-82
2022/06/20 12:56:53;;;;;;;9.23;5.00;;;;;;;;;;4977055;28;20809;-83
2022/06/20 12:59:29;;;;;;;6.90;4.60;;;;;;;;;;4977380;28;20945;-83
2022/06/20 13:02:02;;;;;;;8.33;5.07;;;;;;;;;;4978857;28;20394;-81
2022/06/20 13:04:47;;;;;;;10.47;4.57;;;;;;;;;;4978895;28;20839;-84
2022/06/20 13:07:18;;;;;;;11.13;5.20;;;;;;;;;;4979327;28;20441;-83
2022/06/20 13:10:02;;;;;;;10.60;5.20;;;;;;;;;;4982312;28;20818;-83
2022/06/20 13:12:51;;;;;;;8.67;4.90;;;;;;;;;;4983468;28;20400;-82
2022/06/20 13:15:32;;;;;;;7.07;4.70;;;;;;;;;;4983388;28;20394;-83
2022/06/20 13:18:06;;;;;;;9.50;4.70;;;;;;;;;;4982202;28;20440;-84
2022/06/20 13:20:34;;;;;;;9.77;4.17;;;;;;;;;;4982149;28;20453;-84
2022/06/20 13:23:19;;;;;;;15.73;5.80;;;;;;;;;;4980301;28;20424;-83
2022/06/20 13:25:52;;;;;;;8.43;4.83;;;;;;;;;;4981558;28;21031;-84
2022/06/20 13:28:18;;;;;;;13.13;5.93;;;;;;;;;;4980990;28;20836;-84
2022/06/20 13:30:50;;;;;;;22.73;4.97;;;;;;;;;;4980304;28;20484;-84
2022/06/20 13:33:25;;;;;;;17.13;5.17;;;;;;;;;;4981152;28;20415;-84
2022/06/20 13:36:10;;;;;;;12.70;4.23;;;;;;;;;;4981493;28;20408;-83
2022/06/20 13:38:41;;;;;;;7.20;4.33;;;;;;;;;;4980999;28;20416;-84
2022/06/20 13:41:16;;;;;;;9.80;3.63;;;;;;;;;;4981442;28;20398;-84
2022/06/20 13:43:51;;;;;;;10.60;4.43;;;;;;;;;;4981759;28;20400;-84
2022/06/20 13:46:40;;;;;;;10.90;4.97;;;;;;;;;;4979282;28;20857;-83
2022/06/20 13:49:12;;;;;;;8.10;4.37;;;;;;;;;;4979421;28;20424;-84
2022/06/20 13:52:04;;;;;;;10.27;4.70;;;;;;;;;;4981729;28;20413;-84
2022/06/20 13:54:36;;;;;;;6.83;4.33;;;;;;;;;;4965074;28;20417;-84
2022/06/20 13:57:21;;;;;;;6.73;4.67;;;;;;;;;;4981761;28;20423;-84
2022/06/20 13:59:52;;;;;;;10.00;3.80;;;;;;;;;;4981653;28;20515;-84
2022/06/20 14:02:27;;;;;;;8.20;3.87;;;;;;;;;;4982937;28;20408;-84
2022/06/20 14:04:54;;;;;;;11.27;4.40;;;;;;;;;;4979507;28;20766;-83
2022/06/20 14:07:24;;;;;;;9.70;4.27;;;;;;;;;;4978281;28;20452;-85
2022/06/20 14:09:53;;;;;;;9.10;4.50;;;;;;;;;;4977507;28;20433;-84
2022/06/20 14:12:22;;;;;;;7.43;4.40;;;;;;;;;;4977910;28;20922;-84
2022/06/20 14:14:50;;;;;;;7.63;3.70;;;;;;;;;;4978616;28;20413;-84
2022/06/20 14:17:19;;;;;;;10.30;3.90;;;;;;;;;;4977446;28;20440;-84
2022/06/20 14:19:49;;;;;;;9.17;4.17;;;;;;;;;;4979088;28;20424;-83
2022/06/20 14:22:34;;;;;;;13.70;4.50;;;;;;;;;;4978871;28;20424;-84
2022/06/20 14:25:03;;;;;;;12.20;4.10;;;;;;;;;;4977674;28;20432;-84
2022/06/20 14:27:31;;;;;;;13.77;4.53;;;;;;;;;;4978521;28;20774;-84
2022/06/20 14:30:05;;;;;;;5.10;3.60;;;;;;;;;;4978983;28;20421;-84
2022/06/20 14:32:41;;;;;;;9.63;4.30;;;;;;;;;;4979328;28;20753;-84
2022/06/20 14:35:23;;;;;;;10.00;3.70;;;;;;;;;;4978567;28;20421;-84
2022/06/20 14:38:08;;;;;;;8.13;3.60;;;;;;;;;;4979742;28;20734;-84
2022/06/20 14:40:43;;;;;;;9.63;4.07;;;;;;;;;;4977650;28;20443;-84
2022/06/20 14:43:21;;;;;;;10.80;4.47;;;;;;;;;;4979261;28;20416;-84
2022/06/20 14:46:03;;;;;;;8.40;4.10;;;;;;;;;;4978719;28;20960;-84
2022/06/20 14:48:35;;;;;;;32.17;6.30;;;;;;;;;;4978237;28;20412;-83
2022/06/20 14:51:07;;;;;;;36.57;6.70;;;;;;;;;;4978100;28;20382;-83
2022/06/20 14:53:42;;;;;;;23.53;4.90;;;;;;;;;;4975858;28;20747;-83
2022/06/20 14:56:19;;;;;;;17.20;6.27;;;;;;;;;;4977462;28;20413;-83
2022/06/20 14:58:52;;;;;;;10.60;5.10;;;;;;;;;;4979441;28;20389;-83
2022/06/20 15:01:18;;;;;;;8.63;5.00;;;;;;;;;;4981650;28;20409;-83
2022/06/20 15:04:03;;;;;;;14.40;4.90;;;;;;;;;;4979914;28;20444;-83
2022/06/20 15:06:42;;;;;;;8.97;4.60;;;;;;;;;;4982772;28;20926;-83
2022/06/20 15:09:26;;;;;;;10.63;6.33;;;;;;;;;;4980400;28;20954;-82
2022/06/20 15:11:55;;;;;;;10.53;4.90;;;;;;;;;;4977897;28;20425;-83
2022/06/20 15:14:22;;;;;;;11.03;4.43;;;;;;;;;;4978101;28;20397;-82
2022/06/20 15:16:51;;;;;;;6.17;4.70;;;;;;;;;;4977441;28;20457;-82
2022/06/20 15:19:29;;;;;;;7.20;4.47;;;;;;;;;;4978248;28;20417;-83
2022/06/20 15:21:55;;;;;;;8.50;4.73;;;;;;;;;;4978929;28;20761;-83
2022/06/20 15:24:30;;;;;;;11.13;4.60;;;;;;;;;;4979074;28;20401;-83
2022/06/20 15:27:18;;;;;;;8.50;3.83;;;;;;;;;;4981160;28;20488;-83
2022/06/20 15:29:52;;;;;;;7.77;4.17;;;;;;;;;;4980210;28;20437;-83
2022/06/20 15:32:44;;;;;;;9.40;4.67;;;;;;;;;;4984135;28;20412;-83
2022/06/20 15:35:13;;;;;;;5.70;3.70;;;;;;;;;;4978922;28;20437;-83
2022/06/20 15:37:39;;;;;;;10.00;4.47;;;;;;;;;;4980245;28;20464;-83
2022/06/20 15:40:14;;;;;;;6.70;4.03;;;;;;;;;;4981664;28;20949;-83
2022/06/20 15:42:45;;;;;;;6.00;4.77;;;;;;;;;;4980835;28;20424;-83
2022/06/20 15:45:16;;;;;;;9.10;5.10;;;;;;;;;;4980272;28;20432;-83
2022/06/20 15:47:46;;;;;;;6.47;4.17;;;;;;;;;;4979998;28;20404;-83
2022/06/20 15:50:12;;;;;;;12.43;5.40;;;;;;;;;;4980309;28;20420;-82
2022/06/20 15:52:48;;;;;;;9.27;5.20;;;;;;;;;;4980329;28;20405;-82